sensor_id;sensor_type;location;lat;lon;timestamp;temperature;humidity
26907;DHT22;14472;56.880;16.658;2024-01-06T00:00:38;-6.60;24.30
26907;DHT22;14472;56.880;16.658;2024-01-06T00:03:04;-6.50;21.10
26907;DHT22;14472;56.880;16.658;2024-01-06T00:05:29;-6.60;11.00
26907;DHT22;14472;56.880;16.658;2024-01-06T00:07:55;-6.50;12.40
26907;DHT22;14472;56.880;16.658;2024-01-06T00:10:21;-6.20;17.70
26907;DHT22;14472;56.880;16.658;2024-01-06T00:12:46;-6.00;17.80
26907;DHT22;14472;56.880;16.658;2024-01-06T00:15:14;-5.90;14.60
26907;DHT22;14472;56.880;16.658;2024-01-06T00:17:39;-5.70;12.80
26907;DHT22;14472;56.880;16.658;2024-01-06T00:20:06;-5.60;2.30
26907;DHT22;14472;56.880;16.658;2024-01-06T00:22:31;-5.90;1.00
26907;DHT22;14472;56.880;16.658;2024-01-06T00:24:57;-5.90;1.00
26907;DHT22;14472;56.880;16.658;2024-01-06T00:27:23;-6.20;1.00
26907;DHT22;14472;56.880;16.658;2024-01-06T00:29:48;-6.00;2.10
26907;DHT22;14472;56.880;16.658;2024-01-06T00:32:14;-6.10;5.10
26907;DHT22;14472;56.880;16.658;2024-01-06T00:34:40;-6.00;11.70
26907;DHT22;14472;56.880;16.658;2024-01-06T00:37:05;-6.10;13.50
26907;DHT22;14472;56.880;16.658;2024-01-06T00:39:31;-6.20;9.00
26907;DHT22;14472;56.880;16.658;2024-01-06T00:41:57;-6.10;10.90
26907;DHT22;14472;56.880;16.658;2024-01-06T00:44:22;-6.40;7.50
26907;DHT22;14472;56.880;16.658;2024-01-06T00:46:48;-6.30;5.10
26907;DHT22;14472;56.880;16.658;2024-01-06T00:49:14;-6.40;3.00
26907;DHT22;14472;56.880;16.658;2024-01-06T00:51:39;-6.30;3.80
26907;DHT22;14472;56.880;16.658;2024-01-06T00:54:05;-6.50;5.00
26907;DHT22;14472;56.880;16.658;2024-01-06T00:56:31;-6.30;4.50
26907;DHT22;14472;56.880;16.658;2024-01-06T00:58:57;-6.50;7.10
26907;DHT22;14472;56.880;16.658;2024-01-06T01:01:22;-6.60;6.00
26907;DHT22;14472;56.880;16.658;2024-01-06T01:03:48;-6.60;7.70
26907;DHT22;14472;56.880;16.658;2024-01-06T01:06:14;-6.70;7.80
26907;DHT22;14472;56.880;16.658;2024-01-06T01:08:39;-6.70;8.80
26907;DHT22;14472;56.880;16.658;2024-01-06T01:11:05;-6.60;6.20
26907;DHT22;14472;56.880;16.658;2024-01-06T01:13:31;-6.70;4.40
26907;DHT22;14472;56.880;16.658;2024-01-06T01:15:56;-6.60;4.80
26907;DHT22;14472;56.880;16.658;2024-01-06T01:18:22;-6.80;6.00
26907;DHT22;14472;56.880;16.658;2024-01-06T01:20:48;-6.70;9.90
26907;DHT22;14472;56.880;16.658;2024-01-06T01:23:13;-6.60;7.10
26907;DHT22;14472;56.880;16.658;2024-01-06T01:25:39;-6.60;6.20
26907;DHT22;14472;56.880;16.658;2024-01-06T01:28:05;-6.80;4.20
26907;DHT22;14472;56.880;16.658;2024-01-06T01:30:30;-6.90;3.70
26907;DHT22;14472;56.880;16.658;2024-01-06T01:32:58;-6.90;1.00
26907;DHT22;14472;56.880;16.658;2024-01-06T01:35:23;-6.70;7.00
26907;DHT22;14472;56.880;16.658;2024-01-06T01:37:49;-6.80;4.20
26907;DHT22;14472;56.880;16.658;2024-01-06T01:40:15;-6.80;4.80
26907;DHT22;14472;56.880;16.658;2024-01-06T01:42:42;-6.70;4.70
26907;DHT22;14472;56.880;16.658;2024-01-06T01:45:08;-6.70;5.20
26907;DHT22;14472;56.880;16.658;2024-01-06T01:47:34;-6.70;5.30
26907;DHT22;14472;56.880;16.658;2024-01-06T01:50:01;-6.70;12.20
26907;DHT22;14472;56.880;16.658;2024-01-06T01:52:27;-6.70;7.00
26907;DHT22;14472;56.880;16.658;2024-01-06T01:54:52;-6.90;1.50
26907;DHT22;14472;56.880;16.658;2024-01-06T01:57:19;-6.60;1.70
26907;DHT22;14472;56.880;16.658;2024-01-06T01:59:47;-6.80;6.90
26907;DHT22;14472;56.880;16.658;2024-01-06T02:02:13;-6.70;8.30
26907;DHT22;14472;56.880;16.658;2024-01-06T02:04:39;-6.70;12.20
26907;DHT22;14472;56.880;16.658;2024-01-06T02:07:05;-6.70;18.70
26907;DHT22;14472;56.880;16.658;2024-01-06T02:09:30;-6.60;17.90
26907;DHT22;14472;56.880;16.658;2024-01-06T02:11:59;-6.60;20.70
26907;DHT22;14472;56.880;16.658;2024-01-06T02:14:24;-6.60;17.40
26907;DHT22;14472;56.880;16.658;2024-01-06T02:16:50;-6.70;14.70
26907;DHT22;14472;56.880;16.658;2024-01-06T02:19:16;-6.60;11.40
26907;DHT22;14472;56.880;16.658;2024-01-06T02:21:49;-6.50;11.30
26907;DHT22;14472;56.880;16.658;2024-01-06T02:24:15;-6.60;12.30
26907;DHT22;14472;56.880;16.658;2024-01-06T02:26:41;-6.60;14.20
26907;DHT22;14472;56.880;16.658;2024-01-06T02:29:06;-6.50;12.30
26907;DHT22;14472;56.880;16.658;2024-01-06T02:31:32;-6.60;11.40
26907;DHT22;14472;56.880;16.658;2024-01-06T02:33:58;-6.30;9.60
26907;DHT22;14472;56.880;16.658;2024-01-06T02:36:23;-6.20;12.50
26907;DHT22;14472;56.880;16.658;2024-01-06T02:38:49;-6.10;20.00
26907;DHT22;14472;56.880;16.658;2024-01-06T02:41:14;-5.80;25.50
26907;DHT22;14472;56.880;16.658;2024-01-06T02:43:40;-5.40;35.50
26907;DHT22;14472;56.880;16.658;2024-01-06T02:46:07;-5.20;1.20
26907;DHT22;14472;56.880;16.658;2024-01-06T02:48:32;-5.60;1.00
26907;DHT22;14472;56.880;16.658;2024-01-06T02:50:58;-5.90;1.00
26907;DHT22;14472;56.880;16.658;2024-01-06T02:53:24;-6.00;1.00
26907;DHT22;14472;56.880;16.658;2024-01-06T02:55:49;-6.10;1.00
26907;DHT22;14472;56.880;16.658;2024-01-06T02:58:15;-6.40;1.00
26907;DHT22;14472;56.880;16.658;2024-01-06T03:00:41;-6.60;1.00
26907;DHT22;14472;56.880;16.658;2024-01-06T03:03:06;-6.40;2.50
26907;DHT22;14472;56.880;16.658;2024-01-06T03:05:32;-6.60;5.60
26907;DHT22;14472;56.880;16.658;2024-01-06T03:07:58;-6.50;7.10
26907;DHT22;14472;56.880;16.658;2024-01-06T03:10:23;-6.60;10.10
26907;DHT22;14472;56.880;16.658;2024-01-06T03:12:49;-6.50;17.50
26907;DHT22;14472;56.880;16.658;2024-01-06T03:15:15;-6.60;18.80
26907;DHT22;14472;56.880;16.658;2024-01-06T03:17:40;-6.60;18.70
26907;DHT22;14472;56.880;16.658;2024-01-06T03:20:06;-6.80;17.10
26907;DHT22;14472;56.880;16.658;2024-01-06T03:22:33;-6.80;14.40
26907;DHT22;14472;56.880;16.658;2024-01-06T03:24:59;-6.80;16.20
26907;DHT22;14472;56.880;16.658;2024-01-06T03:27:24;-6.60;19.20
26907;DHT22;14472;56.880;16.658;2024-01-06T03:29:50;-6.30;30.50
26907;DHT22;14472;56.880;16.658;2024-01-06T03:32:16;-6.20;33.10
26907;DHT22;14472;56.880;16.658;2024-01-06T03:34:41;-6.40;11.80
26907;DHT22;14472;56.880;16.658;2024-01-06T03:37:07;-6.60;7.00
26907;DHT22;14472;56.880;16.658;2024-01-06T03:39:33;-6.80;3.90
26907;DHT22;14472;56.880;16.658;2024-01-06T03:42:00;-6.80;5.00
26907;DHT22;14472;56.880;16.658;2024-01-06T03:44:25;-6.90;4.40
26907;DHT22;14472;56.880;16.658;2024-01-06T03:46:56;-6.30;20.40
26907;DHT22;14472;56.880;16.658;2024-01-06T03:49:23;-6.40;26.30
26907;DHT22;14472;56.880;16.658;2024-01-06T03:51:49;-6.40;17.60
26907;DHT22;14472;56.880;16.658;2024-01-06T03:54:14;-6.60;20.10
26907;DHT22;14472;56.880;16.658;2024-01-06T03:56:40;-6.80;17.30
26907;DHT22;14472;56.880;16.658;2024-01-06T03:59:06;-6.80;22.30
26907;DHT22;14472;56.880;16.658;2024-01-06T04:01:32;-7.00;17.20
26907;DHT22;14472;56.880;16.658;2024-01-06T04:04:02;-7.00;22.20
26907;DHT22;14472;56.880;16.658;2024-01-06T04:06:27;-7.00;23.30
26907;DHT22;14472;56.880;16.658;2024-01-06T04:08:53;-6.90;27.20
26907;DHT22;14472;56.880;16.658;2024-01-06T04:11:23;-6.80;32.60
26907;DHT22;14472;56.880;16.658;2024-01-06T04:13:49;-6.80;41.30
26907;DHT22;14472;56.880;16.658;2024-01-06T04:16:15;-7.00;35.90
26907;DHT22;14472;56.880;16.658;2024-01-06T04:18:40;-7.00;40.90
26907;DHT22;14472;56.880;16.658;2024-01-06T04:21:06;-6.90;44.80
26907;DHT22;14472;56.880;16.658;2024-01-06T04:23:32;-7.10;32.40
26907;DHT22;14472;56.880;16.658;2024-01-06T04:25:57;-6.90;38.60
26907;DHT22;14472;56.880;16.658;2024-01-06T04:28:23;-7.00;44.60
26907;DHT22;14472;56.880;16.658;2024-01-06T04:30:49;-6.80;49.70
26907;DHT22;14472;56.880;16.658;2024-01-06T04:33:15;-6.80;56.50
26907;DHT22;14472;56.880;16.658;2024-01-06T04:35:41;-6.80;74.80
26907;DHT22;14472;56.880;16.658;2024-01-06T04:38:06;-6.90;69.30
26907;DHT22;14472;56.880;16.658;2024-01-06T04:40:32;-6.70;69.50
26907;DHT22;14472;56.880;16.658;2024-01-06T04:42:58;-6.80;68.40
26907;DHT22;14472;56.880;16.658;2024-01-06T04:45:23;-6.70;82.50
26907;DHT22;14472;56.880;16.658;2024-01-06T04:47:50;-6.70;93.50
26907;DHT22;14472;56.880;16.658;2024-01-06T04:50:16;-6.60;93.70
26907;DHT22;14472;56.880;16.658;2024-01-06T04:52:43;-6.50;98.30
26907;DHT22;14472;56.880;16.658;2024-01-06T04:55:09;-6.50;99.90
26907;DHT22;14472;56.880;16.658;2024-01-06T04:57:36;-6.40;98.00
26907;DHT22;14472;56.880;16.658;2024-01-06T05:00:02;-6.50;92.40
26907;DHT22;14472;56.880;16.658;2024-01-06T05:02:28;-6.50;90.40
26907;DHT22;14472;56.880;16.658;2024-01-06T05:04:54;-6.50;70.90
26907;DHT22;14472;56.880;16.658;2024-01-06T05:07:20;-6.60;69.60
26907;DHT22;14472;56.880;16.658;2024-01-06T05:09:46;-6.60;50.10
26907;DHT22;14472;56.880;16.658;2024-01-06T05:12:11;-6.70;60.50
26907;DHT22;14472;56.880;16.658;2024-01-06T05:14:37;-6.40;69.80
26907;DHT22;14472;56.880;16.658;2024-01-06T05:17:03;-6.50;63.00
26907;DHT22;14472;56.880;16.658;2024-01-06T05:19:28;-6.60;65.30
26907;DHT22;14472;56.880;16.658;2024-01-06T05:21:54;-6.60;76.20
26907;DHT22;14472;56.880;16.658;2024-01-06T05:24:20;-6.50;78.40
26907;DHT22;14472;56.880;16.658;2024-01-06T05:26:46;-6.40;82.90
26907;DHT22;14472;56.880;16.658;2024-01-06T05:29:11;-6.30;89.30
26907;DHT22;14472;56.880;16.658;2024-01-06T05:31:37;-6.30;92.50
26907;DHT22;14472;56.880;16.658;2024-01-06T05:34:03;-6.00;91.10
26907;DHT22;14472;56.880;16.658;2024-01-06T05:36:30;-6.10;89.50
26907;DHT22;14472;56.880;16.658;2024-01-06T05:38:55;-6.00;91.40
26907;DHT22;14472;56.880;16.658;2024-01-06T05:41:21;-5.80;93.60
26907;DHT22;14472;56.880;16.658;2024-01-06T05:43:47;-5.80;98.20
26907;DHT22;14472;56.880;16.658;2024-01-06T05:46:23;-5.50;99.50
26907;DHT22;14472;56.880;16.658;2024-01-06T05:48:49;-5.60;91.90
26907;DHT22;14472;56.880;16.658;2024-01-06T05:51:15;-5.90;84.50
26907;DHT22;14472;56.880;16.658;2024-01-06T05:53:41;-6.00;93.90
26907;DHT22;14472;56.880;16.658;2024-01-06T05:56:07;-5.90;97.30
26907;DHT22;14472;56.880;16.658;2024-01-06T05:58:34;-5.90;99.90
26907;DHT22;14472;56.880;16.658;2024-01-06T06:01:00;-5.90;99.90
26907;DHT22;14472;56.880;16.658;2024-01-06T06:03:26;-5.90;99.90
26907;DHT22;14472;56.880;16.658;2024-01-06T06:05:51;-5.80;99.90
26907;DHT22;14472;56.880;16.658;2024-01-06T06:08:18;-5.70;99.90
26907;DHT22;14472;56.880;16.658;2024-01-06T06:10:44;-5.90;99.90
26907;DHT22;14472;56.880;16.658;2024-01-06T06:13:26;-5.90;99.90
26907;DHT22;14472;56.880;16.658;2024-01-06T06:15:52;-5.90;99.90
26907;DHT22;14472;56.880;16.658;2024-01-06T06:18:18;-5.80;99.90
26907;DHT22;14472;56.880;16.658;2024-01-06T06:20:44;-5.70;99.90
26907;DHT22;14472;56.880;16.658;2024-01-06T06:23:10;-5.70;99.90
26907;DHT22;14472;56.880;16.658;2024-01-06T06:25:38;-5.80;99.90
26907;DHT22;14472;56.880;16.658;2024-01-06T06:28:04;-5.80;99.90
26907;DHT22;14472;56.880;16.658;2024-01-06T06:30:30;-5.90;99.90
26907;DHT22;14472;56.880;16.658;2024-01-06T06:32:56;-5.80;99.90
26907;DHT22;14472;56.880;16.658;2024-01-06T06:35:23;-5.90;99.90
26907;DHT22;14472;56.880;16.658;2024-01-06T06:37:49;-5.80;99.90
26907;DHT22;14472;56.880;16.658;2024-01-06T06:40:15;-5.90;99.90
26907;DHT22;14472;56.880;16.658;2024-01-06T06:42:41;-5.80;99.90
26907;DHT22;14472;56.880;16.658;2024-01-06T06:45:07;-5.90;99.90
26907;DHT22;14472;56.880;16.658;2024-01-06T06:47:32;-5.90;99.90
26907;DHT22;14472;56.880;16.658;2024-01-06T06:49:58;-5.60;99.90
26907;DHT22;14472;56.880;16.658;2024-01-06T06:52:24;-5.70;99.90
26907;DHT22;14472;56.880;16.658;2024-01-06T06:54:49;-5.80;98.20
26907;DHT22;14472;56.880;16.658;2024-01-06T06:57:17;-6.00;99.90
26907;DHT22;14472;56.880;16.658;2024-01-06T06:59:43;-5.70;99.90
26907;DHT22;14472;56.880;16.658;2024-01-06T07:02:08;-5.70;99.90
26907;DHT22;14472;56.880;16.658;2024-01-06T07:04:34;-5.60;99.90
26907;DHT22;14472;56.880;16.658;2024-01-06T07:07:00;-5.60;99.90
26907;DHT22;14472;56.880;16.658;2024-01-06T07:09:26;-5.60;99.90
26907;DHT22;14472;56.880;16.658;2024-01-06T07:11:51;-5.50;99.90
26907;DHT22;14472;56.880;16.658;2024-01-06T07:14:17;-5.60;99.90
26907;DHT22;14472;56.880;16.658;2024-01-06T07:16:43;-5.80;96.10
26907;DHT22;14472;56.880;16.658;2024-01-06T07:19:08;-5.60;97.10
26907;DHT22;14472;56.880;16.658;2024-01-06T07:21:34;-5.70;95.50
26907;DHT22;14472;56.880;16.658;2024-01-06T07:24:00;-5.70;95.00
26907;DHT22;14472;56.880;16.658;2024-01-06T07:26:29;-5.50;93.80
26907;DHT22;14472;56.880;16.658;2024-01-06T07:28:55;-5.50;91.90
26907;DHT22;14472;56.880;16.658;2024-01-06T07:31:20;-5.50;92.80
26907;DHT22;14472;56.880;16.658;2024-01-06T07:33:46;-5.60;92.40
26907;DHT22;14472;56.880;16.658;2024-01-06T07:36:12;-5.60;91.70
26907;DHT22;14472;56.880;16.658;2024-01-06T07:38:38;-5.50;87.60
26907;DHT22;14472;56.880;16.658;2024-01-06T07:41:03;-4.50;99.90
26907;DHT22;14472;56.880;16.658;2024-01-06T07:43:32;-4.00;99.90
26907;DHT22;14472;56.880;16.658;2024-01-06T07:45:57;-4.00;99.90
26907;DHT22;14472;56.880;16.658;2024-01-06T07:48:23;-4.50;46.60
26907;DHT22;14472;56.880;16.658;2024-01-06T07:50:49;-4.60;34.70
26907;DHT22;14472;56.880;16.658;2024-01-06T07:53:15;-4.80;45.10
26907;DHT22;14472;56.880;16.658;2024-01-06T07:55:41;-4.90;46.30
26907;DHT22;14472;56.880;16.658;2024-01-06T07:58:06;-5.20;55.60
26907;DHT22;14472;56.880;16.658;2024-01-06T08:00:32;-4.90;62.10
26907;DHT22;14472;56.880;16.658;2024-01-06T08:02:58;-5.00;58.00
26907;DHT22;14472;56.880;16.658;2024-01-06T08:05:24;-5.10;66.80
26907;DHT22;14472;56.880;16.658;2024-01-06T08:07:51;-5.30;70.80
26907;DHT22;14472;56.880;16.658;2024-01-06T08:10:17;-5.20;74.70
26907;DHT22;14472;56.880;16.658;2024-01-06T08:12:43;-5.40;72.30
26907;DHT22;14472;56.880;16.658;2024-01-06T08:15:09;-5.50;70.60
26907;DHT22;14472;56.880;16.658;2024-01-06T08:17:35;-5.40;85.10
26907;DHT22;14472;56.880;16.658;2024-01-06T08:20:01;-5.40;92.30
26907;DHT22;14472;56.880;16.658;2024-01-06T08:22:28;-5.30;97.10
26907;DHT22;14472;56.880;16.658;2024-01-06T08:24:54;-5.40;94.70
26907;DHT22;14472;56.880;16.658;2024-01-06T08:27:20;-5.50;94.70
26907;DHT22;14472;56.880;16.658;2024-01-06T08:29:47;-5.30;99.70
26907;DHT22;14472;56.880;16.658;2024-01-06T08:32:12;-5.30;99.90
26907;DHT22;14472;56.880;16.658;2024-01-06T08:34:40;-5.30;99.90
26907;DHT22;14472;56.880;16.658;2024-01-06T08:37:06;-5.50;91.80
26907;DHT22;14472;56.880;16.658;2024-01-06T08:39:31;-5.50;83.70
26907;DHT22;14472;56.880;16.658;2024-01-06T08:41:57;-5.40;83.80
26907;DHT22;14472;56.880;16.658;2024-01-06T08:44:23;-5.60;71.30
26907;DHT22;14472;56.880;16.658;2024-01-06T08:46:48;-5.70;66.40
26907;DHT22;14472;56.880;16.658;2024-01-06T08:49:15;-5.70;77.00
26907;DHT22;14472;56.880;16.658;2024-01-06T08:51:40;-5.50;71.50
26907;DHT22;14472;56.880;16.658;2024-01-06T08:54:06;-5.70;86.20
26907;DHT22;14472;56.880;16.658;2024-01-06T08:56:33;-5.50;92.50
26907;DHT22;14472;56.880;16.658;2024-01-06T08:59:00;-5.40;97.40
26907;DHT22;14472;56.880;16.658;2024-01-06T09:01:25;-5.50;85.00
26907;DHT22;14472;56.880;16.658;2024-01-06T09:03:51;-5.40;82.10
26907;DHT22;14472;56.880;16.658;2024-01-06T09:06:16;-5.50;75.50
26907;DHT22;14472;56.880;16.658;2024-01-06T09:08:42;-5.40;92.70
26907;DHT22;14472;56.880;16.658;2024-01-06T09:11:08;-5.30;97.40
26907;DHT22;14472;56.880;16.658;2024-01-06T09:13:34;-5.30;92.90
26907;DHT22;14472;56.880;16.658;2024-01-06T09:15:59;-5.20;91.00
26907;DHT22;14472;56.880;16.658;2024-01-06T09:18:26;-5.10;92.20
26907;DHT22;14472;56.880;16.658;2024-01-06T09:20:52;-5.00;93.00
26907;DHT22;14472;56.880;16.658;2024-01-06T09:23:19;-5.10;98.50
26907;DHT22;14472;56.880;16.658;2024-01-06T09:25:45;-4.90;94.50
26907;DHT22;14472;56.880;16.658;2024-01-06T09:28:10;-5.20;88.10
26907;DHT22;14472;56.880;16.658;2024-01-06T09:30:36;-5.10;84.10
26907;DHT22;14472;56.880;16.658;2024-01-06T09:33:03;-4.90;90.60
26907;DHT22;14472;56.880;16.658;2024-01-06T09:35:28;-4.80;73.30
26907;DHT22;14472;56.880;16.658;2024-01-06T09:37:54;-4.90;71.30
26907;DHT22;14472;56.880;16.658;2024-01-06T09:40:23;-4.90;58.10
26907;DHT22;14472;56.880;16.658;2024-01-06T09:42:52;-5.00;59.20
26907;DHT22;14472;56.880;16.658;2024-01-06T09:45:20;-4.80;71.30
26907;DHT22;14472;56.880;16.658;2024-01-06T09:47:50;-4.90;68.50
26907;DHT22;14472;56.880;16.658;2024-01-06T09:50:20;-4.90;71.30
26907;DHT22;14472;56.880;16.658;2024-01-06T09:52:46;-4.80;71.30
26907;DHT22;14472;56.880;16.658;2024-01-06T09:55:23;-4.60;71.40
26907;DHT22;14472;56.880;16.658;2024-01-06T09:57:50;-4.90;59.10
26907;DHT22;14472;56.880;16.658;2024-01-06T10:00:17;-4.90;58.10
26907;DHT22;14472;56.880;16.658;2024-01-06T10:02:43;-4.80;56.10
26907;DHT22;14472;56.880;16.658;2024-01-06T10:05:09;-4.70;49.80
26907;DHT22;14472;56.880;16.658;2024-01-06T10:07:37;-4.70;48.50
26907;DHT22;14472;56.880;16.658;2024-01-06T10:10:03;-4.50;52.50
26907;DHT22;14472;56.880;16.658;2024-01-06T10:12:29;-4.70;47.70
26907;DHT22;14472;56.880;16.658;2024-01-06T10:14:54;-4.50;46.60
26907;DHT22;14472;56.880;16.658;2024-01-06T10:17:20;-4.00;55.70
26907;DHT22;14472;56.880;16.658;2024-01-06T10:19:47;-3.80;49.20
26907;DHT22;14472;56.880;16.658;2024-01-06T10:22:15;-3.60;85.50
26907;DHT22;14472;56.880;16.658;2024-01-06T10:24:42;-3.70;11.30
26907;DHT22;14472;56.880;16.658;2024-01-06T10:27:07;-3.90;2.20
26907;DHT22;14472;56.880;16.658;2024-01-06T10:29:34;-4.10;1.70
26907;DHT22;14472;56.880;16.658;2024-01-06T10:32:00;-4.40;1.00
26907;DHT22;14472;56.880;16.658;2024-01-06T10:34:28;-4.60;4.40
26907;DHT22;14472;56.880;16.658;2024-01-06T10:36:54;-4.60;2.90
26907;DHT22;14472;56.880;16.658;2024-01-06T10:39:21;-4.60;13.50
26907;DHT22;14472;56.880;16.658;2024-01-06T10:41:50;-4.80;13.70
26907;DHT22;14472;56.880;16.658;2024-01-06T10:44:17;-4.70;16.50
26907;DHT22;14472;56.880;16.658;2024-01-06T10:46:44;-4.70;18.60
26907;DHT22;14472;56.880;16.658;2024-01-06T10:49:11;-4.70;19.40
26907;DHT22;14472;56.880;16.658;2024-01-06T10:51:38;-4.70;19.50
26907;DHT22;14472;56.880;16.658;2024-01-06T10:54:05;-4.70;18.60
26907;DHT22;14472;56.880;16.658;2024-01-06T10:56:37;-4.90;19.90
26907;DHT22;14472;56.880;16.658;2024-01-06T10:59:07;-5.00;14.70
26907;DHT22;14472;56.880;16.658;2024-01-06T11:01:34;-4.90;21.30
26907;DHT22;14472;56.880;16.658;2024-01-06T11:04:02;-5.00;18.40
26907;DHT22;14472;56.880;16.658;2024-01-06T11:06:30;-4.80;23.60
26907;DHT22;14472;56.880;16.658;2024-01-06T11:09:21;-4.90;18.40
26907;DHT22;14472;56.880;16.658;2024-01-06T11:11:48;-4.80;31.10
26907;DHT22;14472;56.880;16.658;2024-01-06T11:14:18;-4.80;30.40
26907;DHT22;14472;56.880;16.658;2024-01-06T11:16:45;-5.00;26.50
26907;DHT22;14472;56.880;16.658;2024-01-06T11:24:48;-5.20;23.30
26907;DHT22;14472;56.880;16.658;2024-01-06T11:27:25;-5.10;28.30
26907;DHT22;14472;56.880;16.658;2024-01-06T11:29:55;-5.20;25.60
26907;DHT22;14472;56.880;16.658;2024-01-06T11:32:29;-5.20;21.20
26907;DHT22;14472;56.880;16.658;2024-01-06T11:35:04;-5.30;16.20
26907;DHT22;14472;56.880;16.658;2024-01-06T11:37:54;-5.40;15.70
26907;DHT22;14472;56.880;16.658;2024-01-06T11:42:47;-5.30;23.20
26907;DHT22;14472;56.880;16.658;2024-01-06T11:45:13;-5.10;28.20
26907;DHT22;14472;56.880;16.658;2024-01-06T11:47:39;-5.30;17.20
26907;DHT22;14472;56.880;16.658;2024-01-06T11:50:06;-5.30;21.00
26907;DHT22;14472;56.880;16.658;2024-01-06T11:52:32;-5.30;18.20
26907;DHT22;14472;56.880;16.658;2024-01-06T11:54:59;-5.20;16.20
26907;DHT22;14472;56.880;16.658;2024-01-06T11:57:29;-5.30;19.50
26907;DHT22;14472;56.880;16.658;2024-01-06T11:59:55;-5.30;22.10
26907;DHT22;14472;56.880;16.658;2024-01-06T12:02:21;-5.10;25.70
26907;DHT22;14472;56.880;16.658;2024-01-06T12:04:53;-5.20;26.20
26907;DHT22;14472;56.880;16.658;2024-01-06T12:07:20;-5.10;28.30
26907;DHT22;14472;56.880;16.658;2024-01-06T12:09:51;-5.00;34.50
26907;DHT22;14472;56.880;16.658;2024-01-06T12:12:25;-5.00;27.10
26907;DHT22;14472;56.880;16.658;2024-01-06T12:14:51;-4.90;27.90
26907;DHT22;14472;56.880;16.658;2024-01-06T12:17:16;-4.90;29.30
26907;DHT22;14472;56.880;16.658;2024-01-06T12:19:42;-4.80;28.90
26907;DHT22;14472;56.880;16.658;2024-01-06T12:22:11;-4.60;28.60
26907;DHT22;14472;56.880;16.658;2024-01-06T12:24:38;-4.70;25.40
26907;DHT22;14472;56.880;16.658;2024-01-06T12:27:07;-4.90;26.50
26907;DHT22;14472;56.880;16.658;2024-01-06T12:29:33;-4.70;28.30
26907;DHT22;14472;56.880;16.658;2024-01-06T12:31:59;-4.70;21.10
26907;DHT22;14472;56.880;16.658;2024-01-06T12:34:25;-4.70;20.60
26907;DHT22;14472;56.880;16.658;2024-01-06T12:36:55;-4.60;19.70
26907;DHT22;14472;56.880;16.658;2024-01-06T12:39:21;-4.60;23.60
26907;DHT22;14472;56.880;16.658;2024-01-06T12:41:50;-4.50;30.50
26907;DHT22;14472;56.880;16.658;2024-01-06T12:44:16;-4.00;76.70
26907;DHT22;14472;56.880;16.658;2024-01-06T12:46:42;-3.70;55.10
26907;DHT22;14472;56.880;16.658;2024-01-06T12:49:07;-4.00;16.40
26907;DHT22;14472;56.880;16.658;2024-01-06T12:51:33;-4.00;5.70
26907;DHT22;14472;56.880;16.658;2024-01-06T12:53:59;-4.20;1.00
26907;DHT22;14472;56.880;16.658;2024-01-06T12:56:24;-4.20;1.00
26907;DHT22;14472;56.880;16.658;2024-01-06T12:58:50;-4.40;7.20
26907;DHT22;14472;56.880;16.658;2024-01-06T13:01:16;-4.30;7.50
26907;DHT22;14472;56.880;16.658;2024-01-06T13:03:43;-4.40;3.70
26907;DHT22;14472;56.880;16.658;2024-01-06T13:06:09;-4.40;8.30
26907;DHT22;14472;56.880;16.658;2024-01-06T13:08:35;-4.40;9.40
26907;DHT22;14472;56.880;16.658;2024-01-06T13:11:00;-4.30;18.80
26907;DHT22;14472;56.880;16.658;2024-01-06T13:13:26;-4.40;18.70
26907;DHT22;14472;56.880;16.658;2024-01-06T13:15:52;-4.40;20.40
26907;DHT22;14472;56.880;16.658;2024-01-06T13:18:17;-4.30;17.30
26907;DHT22;14472;56.880;16.658;2024-01-06T13:20:43;-4.50;16.90
26907;DHT22;14472;56.880;16.658;2024-01-06T13:23:09;-4.60;18.60
26907;DHT22;14472;56.880;16.658;2024-01-06T13:25:37;-4.50;18.70
26907;DHT22;14472;56.880;16.658;2024-01-06T13:28:07;-4.60;21.70
26907;DHT22;14472;56.880;16.658;2024-01-06T13:30:33;-4.50;19.50
26907;DHT22;14472;56.880;16.658;2024-01-06T13:32:59;-4.50;22.90
26907;DHT22;14472;56.880;16.658;2024-01-06T13:35:25;-4.60;13.90
26907;DHT22;14472;56.880;16.658;2024-01-06T13:37:52;-4.60;17.20
26907;DHT22;14472;56.880;16.658;2024-01-06T13:40:18;-4.40;17.60
26907;DHT22;14472;56.880;16.658;2024-01-06T13:42:47;-4.40;18.70
26907;DHT22;14472;56.880;16.658;2024-01-06T13:45:12;-4.60;14.70
26907;DHT22;14472;56.880;16.658;2024-01-06T13:47:39;-4.70;11.90
26907;DHT22;14472;56.880;16.658;2024-01-06T13:50:11;-4.80;4.50
26907;DHT22;14472;56.880;16.658;2024-01-06T13:52:37;-4.60;11.00
26907;DHT22;14472;56.880;16.658;2024-01-06T13:55:03;-4.60;11.20
26907;DHT22;14472;56.880;16.658;2024-01-06T13:57:29;-4.70;6.60
26907;DHT22;14472;56.880;16.658;2024-01-06T13:59:55;-4.70;8.20
26907;DHT22;14472;56.880;16.658;2024-01-06T14:02:22;-4.70;11.00
26907;DHT22;14472;56.880;16.658;2024-01-06T14:04:48;-4.70;15.00
26907;DHT22;14472;56.880;16.658;2024-01-06T14:07:14;-4.60;12.30
26907;DHT22;14472;56.880;16.658;2024-01-06T14:09:40;-4.70;11.30
26907;DHT22;14472;56.880;16.658;2024-01-06T14:12:06;-4.80;13.40
26907;DHT22;14472;56.880;16.658;2024-01-06T14:14:32;-4.60;20.40
26907;DHT22;14472;56.880;16.658;2024-01-06T14:16:58;-4.50;24.40
26907;DHT22;14472;56.880;16.658;2024-01-06T14:19:24;-4.70;20.00
26907;DHT22;14472;56.880;16.658;2024-01-06T14:21:50;-4.80;18.30
26907;DHT22;14472;56.880;16.658;2024-01-06T14:24:18;-4.60;18.70
26907;DHT22;14472;56.880;16.658;2024-01-06T14:26:50;-4.30;25.00
26907;DHT22;14472;56.880;16.658;2024-01-06T14:29:16;-4.20;27.20
26907;DHT22;14472;56.880;16.658;2024-01-06T14:31:42;-4.10;16.00
26907;DHT22;14472;56.880;16.658;2024-01-06T14:34:09;-4.10;15.40
26907;DHT22;14472;56.880;16.658;2024-01-06T14:36:35;-4.30;15.00
26907;DHT22;14472;56.880;16.658;2024-01-06T14:39:01;-4.40;15.20
26907;DHT22;14472;56.880;16.658;2024-01-06T14:41:27;-4.40;15.40
26907;DHT22;14472;56.880;16.658;2024-01-06T14:43:53;-4.30;17.20
26907;DHT22;14472;56.880;16.658;2024-01-06T14:46:18;-4.20;13.80
26907;DHT22;14472;56.880;16.658;2024-01-06T14:48:44;-4.30;13.50
26907;DHT22;14472;56.880;16.658;2024-01-06T14:51:10;-4.30;12.20
26907;DHT22;14472;56.880;16.658;2024-01-06T14:53:36;-4.40;8.40
26907;DHT22;14472;56.880;16.658;2024-01-06T14:56:02;-4.50;8.30
26907;DHT22;14472;56.880;16.658;2024-01-06T14:58:29;-4.50;9.50
26907;DHT22;14472;56.880;16.658;2024-01-06T15:00:55;-4.50;9.00
26907;DHT22;14472;56.880;16.658;2024-01-06T15:03:21;-4.40;8.80
26907;DHT22;14472;56.880;16.658;2024-01-06T15:05:49;-4.40;3.10
26907;DHT22;14472;56.880;16.658;2024-01-06T15:08:15;-4.50;3.60
26907;DHT22;14472;56.880;16.658;2024-01-06T15:10:41;-4.60;3.90
26907;DHT22;14472;56.880;16.658;2024-01-06T15:13:06;-4.60;6.80
26907;DHT22;14472;56.880;16.658;2024-01-06T15:15:32;-4.50;5.60
26907;DHT22;14472;56.880;16.658;2024-01-06T15:17:58;-4.50;11.60
26907;DHT22;14472;56.880;16.658;2024-01-06T15:20:23;-4.50;9.30
26907;DHT22;14472;56.880;16.658;2024-01-06T15:22:49;-4.60;8.20